Time;durP1;ratioP1;P1;durP2;ratioP2;P2;SDS_P1;SDS_P2;PMS_P1;PMS_P2;Temp;Humidity;BMP_temperature;BMP_pressure;BME280_temperature;BME280_humidity;BME280_pressure;Samples;Min_cycle;Max_cycle;Signal;HPM_P1;HPM_P2
2023/10/03 00:00:33;;;;;;;28.43;23.10;;;19.80;27.40;;;;;;4997621;28;20524;-80
2023/10/03 00:03:00;;;;;;;26.90;22.50;;;19.80;27.50;;;;;;4985765;28;20495;-77
2023/10/03 00:05:28;;;;;;;27.53;23.77;;;19.80;27.60;;;;;;4998154;28;20517;-79
2023/10/03 00:07:54;;;;;;;28.27;23.87;;;19.80;27.60;;;;;;4980644;28;20801;-78
2023/10/03 00:10:20;;;;;;;25.93;23.10;;;19.80;27.70;;;;;;5000819;28;20456;-79
2023/10/03 00:12:51;;;;;;;26.63;22.53;;;19.70;27.60;;;;;;5001652;28;20430;-78
2023/10/03 00:15:17;;;;;;;24.10;21.50;;;19.80;27.70;;;;;;4988763;28;20530;-79
2023/10/03 00:17:44;;;;;;;26.27;23.47;;;19.70;27.80;;;;;;5011962;28;20443;-79
2023/10/03 00:20:16;;;;;;;25.80;22.10;;;19.70;27.90;;;;;;5005808;28;20429;-80
2023/10/03 00:22:42;;;;;;;27.90;21.13;;;19.70;28.00;;;;;;5007571;28;20431;-79
2023/10/03 00:25:14;;;;;;;24.87;21.60;;;19.70;28.00;;;;;;4997617;28;20455;-78
2023/10/03 00:27:40;;;;;;;25.47;22.77;;;19.70;28.10;;;;;;4997839;28;20839;-79
2023/10/03 00:30:07;;;;;;;24.57;22.00;;;19.70;28.20;;;;;;5012794;28;20463;-79
2023/10/03 00:32:32;;;;;;;24.50;21.87;;;19.70;28.20;;;;;;4990162;28;20261;-80
2023/10/03 00:34:58;;;;;;;23.33;20.93;;;19.70;28.20;;;;;;4984292;28;20469;-80
2023/10/03 00:37:24;;;;;;;25.87;23.07;;;19.70;28.20;;;;;;4979761;28;20201;-80
2023/10/03 00:39:50;;;;;;;24.23;20.40;;;19.70;28.20;;;;;;4980414;28;20456;-80
2023/10/03 00:42:15;;;;;;;22.93;20.63;;;19.70;28.20;;;;;;4996927;28;20198;-79
2023/10/03 00:44:41;;;;;;;23.07;20.73;;;19.80;28.20;;;;;;4996542;28;20617;-79
2023/10/03 00:47:07;;;;;;;24.63;21.33;;;19.80;28.20;;;;;;4996819;28;20228;-79
2023/10/03 00:49:35;;;;;;;23.83;20.70;;;19.80;28.20;;;;;;4992885;28;20243;-80
2023/10/03 00:52:01;;;;;;;21.33;19.10;;;19.90;27.90;;;;;;4998943;28;20253;-79
2023/10/03 00:54:27;;;;;;;23.33;20.93;;;19.90;27.90;;;;;;4996998;28;20542;-79
2023/10/03 00:56:53;;;;;;;25.23;22.57;;;19.90;27.80;;;;;;4996554;28;20528;-79
2023/10/03 00:59:19;;;;;;;24.77;21.73;;;19.90;27.90;;;;;;4985203;28;20469;-79
2023/10/03 01:01:46;;;;;;;22.83;20.37;;;19.90;27.90;;;;;;4978239;28;20190;-79
2023/10/03 01:04:19;;;;;;;22.27;20.10;;;19.90;28.00;;;;;;4991856;28;20661;-79
2023/10/03 01:06:47;;;;;;;27.07;22.03;;;19.90;27.80;;;;;;4994636;28;20476;-79
2023/10/03 01:09:24;;;;;;;22.07;19.77;;;19.90;27.80;;;;;;4979747;28;21005;-79
2023/10/03 01:11:52;;;;;;;22.20;20.10;;;20.00;27.50;;;;;;4976236;28;20417;-80
2023/10/03 01:14:18;;;;;;;24.87;22.27;;;20.00;27.50;;;;;;4980700;28;20416;-79
2023/10/03 01:16:45;;;;;;;22.70;20.40;;;20.10;27.50;;;;;;4995580;28;20936;-80
2023/10/03 01:21:41;;;;;;;23.60;21.23;;;20.10;27.30;;;;;;5000137;28;20758;-79
2023/10/03 01:24:09;;;;;;;23.27;20.40;;;20.10;27.00;;;;;;4975386;28;20444;-79
2023/10/03 01:26:35;;;;;;;22.70;20.27;;;20.10;26.90;;;;;;4967425;28;20202;-79
2023/10/03 01:29:00;;;;;;;23.30;21.00;;;20.20;27.10;;;;;;4977123;28;20425;-79
2023/10/03 01:31:27;;;;;;;23.30;20.80;;;20.20;27.00;;;;;;4995327;28;20837;-79
2023/10/03 01:33:53;;;;;;;22.50;20.17;;;20.20;26.90;;;;;;4977424;28;20551;-79
2023/10/03 01:36:18;;;;;;;22.23;19.90;;;20.20;26.90;;;;;;4995105;28;20437;-79
2023/10/03 01:38:45;;;;;;;22.73;20.43;;;20.20;27.10;;;;;;4995532;28;20428;-79
2023/10/03 01:41:12;;;;;;;22.17;19.87;;;20.20;27.10;;;;;;4995615;28;20530;-79
2023/10/03 01:43:43;;;;;;;22.63;20.23;;;20.10;27.10;;;;;;4997981;28;22034;-79
2023/10/03 01:46:09;;;;;;;22.97;19.53;;;20.10;27.00;;;;;;4971696;28;20469;-79
2023/10/03 01:48:35;;;;;;;22.50;20.20;;;20.10;27.00;;;;;;4978868;28;20457;-79
2023/10/03 01:51:02;;;;;;;23.80;21.50;;;20.10;26.90;;;;;;4985467;28;20484;-79
2023/10/03 01:53:29;;;;;;;23.67;21.17;;;20.20;26.90;;;;;;4963401;28;20237;-79
2023/10/03 01:55:55;;;;;;;23.53;21.13;;;20.10;26.80;;;;;;4964094;28;20418;-79
2023/10/03 01:58:23;;;;;;;23.77;21.10;;;20.10;26.80;;;;;;4963015;28;21023;-79
2023/10/03 02:00:50;;;;;;;24.07;21.50;;;20.10;26.80;;;;;;4961803;28;20505;-79
2023/10/03 02:03:18;;;;;;;23.67;21.37;;;20.10;27.00;;;;;;4979927;28;20414;-79
2023/10/03 02:05:44;;;;;;;23.60;20.50;;;20.10;26.90;;;;;;4962159;28;20552;-80
2023/10/03 02:08:17;;;;;;;26.60;21.97;;;20.10;26.80;;;;;;4962460;28;20484;-80
2023/10/03 02:10:49;;;;;;;23.30;21.00;;;20.10;26.70;;;;;;4981345;28;20406;-79
2023/10/03 02:13:15;;;;;;;23.50;21.10;;;20.10;26.60;;;;;;4963869;28;20858;-79
2023/10/03 02:15:42;;;;;;;23.40;20.90;;;20.10;26.70;;;;;;4963235;28;20414;-79
2023/10/03 02:18:14;;;;;;;21.87;19.87;;;20.10;26.70;;;;;;4980572;28;20225;-80
2023/10/03 02:20:52;;;;;;;23.30;20.90;;;20.00;26.50;;;;;;4979461;28;20794;-80
2023/10/03 02:23:23;;;;;;;23.00;20.70;;;20.10;26.60;;;;;;4979792;28;20523;-79
2023/10/03 02:25:50;;;;;;;23.67;21.23;;;20.10;27.10;;;;;;4961755;28;20422;-79
2023/10/03 02:28:17;;;;;;;24.67;21.70;;;20.00;26.50;;;;;;4979860;28;20457;-80
2023/10/03 02:30:47;;;;;;;22.73;20.43;;;20.00;26.50;;;;;;4979081;28;20984;-79
2023/10/03 02:33:13;;;;;;;24.33;21.73;;;20.00;26.60;;;;;;4978659;28;20918;-80
2023/10/03 02:35:43;;;;;;;22.87;20.57;;;20.00;26.60;;;;;;4975350;28;20484;-80
2023/10/03 02:38:23;;;;;;;24.20;21.67;;;20.10;26.80;;;;;;4980978;28;20417;-80
2023/10/03 02:40:50;;;;;;;23.80;21.20;;;20.00;26.50;;;;;;4980719;28;20935;-79
2023/10/03 02:43:16;;;;;;;22.90;20.40;;;19.90;27.10;;;;;;4997718;28;20521;-79
2023/10/03 02:45:42;;;;;;;24.30;20.37;;;19.90;26.50;;;;;;4997146;28;20757;-80
2023/10/03 02:48:20;;;;;;;22.40;20.20;;;19.90;26.60;;;;;;5016773;22;20230;-78
2023/10/03 02:50:47;;;;;;;22.47;20.10;;;19.90;26.50;;;;;;4978285;28;20429;-79
2023/10/03 02:53:19;;;;;;;21.97;19.77;;;19.90;26.80;;;;;;4984575;28;20421;-79
2023/10/03 02:55:46;;;;;;;23.03;20.70;;;19.80;26.70;;;;;;4982879;28;20441;-80
2023/10/03 02:58:16;;;;;;;22.03;19.77;;;19.80;27.20;;;;;;4966466;28;20450;-78
2023/10/03 03:00:43;;;;;;;22.23;19.53;;;19.80;26.50;;;;;;4964494;28;20934;-79
2023/10/03 03:03:29;;;;;;;20.90;18.80;;;19.90;26.50;;;;;;4981989;28;20422;-79
2023/10/03 03:05:55;;;;;;;21.03;18.93;;;19.80;26.40;;;;;;4981003;28;20422;-79
2023/10/03 03:08:23;;;;;;;21.90;19.80;;;19.70;26.10;;;;;;4948232;28;20473;-79
2023/10/03 03:10:56;;;;;;;22.53;20.13;;;19.70;26.40;;;;;;4964427;28;20418;-79
2023/10/03 03:13:31;;;;;;;22.33;20.10;;;19.70;26.30;;;;;;4964931;28;20450;-77
2023/10/03 03:15:59;;;;;;;21.70;19.50;;;19.70;26.30;;;;;;4970651;28;20944;-77
2023/10/03 03:18:31;;;;;;;22.20;19.93;;;19.70;26.30;;;;;;4984375;28;20431;-78
2023/10/03 03:20:58;;;;;;;22.87;20.47;;;19.70;26.50;;;;;;4968465;28;20418;-78
2023/10/03 03:23:29;;;;;;;21.80;19.60;;;19.70;26.30;;;;;;4969322;28;20434;-77
2023/10/03 03:26:03;;;;;;;23.23;20.17;;;19.70;26.20;;;;;;4984033;28;20442;-80
2023/10/03 03:28:29;;;;;;;21.23;19.33;;;19.70;26.10;;;;;;4982561;28;20476;-80
2023/10/03 03:30:58;;;;;;;21.30;19.30;;;19.70;25.80;;;;;;4982178;28;20410;-79
2023/10/03 03:33:27;;;;;;;21.30;19.30;;;19.70;25.80;;;;;;4982016;28;20175;-79
2023/10/03 03:35:54;;;;;;;22.10;19.77;;;19.70;25.70;;;;;;4981114;28;20441;-80
2023/10/03 03:38:20;;;;;;;21.50;19.43;;;19.70;25.90;;;;;;4981273;28;20778;-79
2023/10/03 03:40:53;;;;;;;19.40;17.50;;;19.70;25.70;;;;;;4980944;28;20418;-80
2023/10/03 03:43:19;;;;;;;19.63;17.63;;;19.70;25.60;;;;;;4963623;28;20458;-79
2023/10/03 03:45:44;;;;;;;19.67;17.67;;;19.70;25.70;;;;;;4962302;28;20437;-79
2023/10/03 03:48:11;;;;;;;19.97;17.87;;;19.70;25.60;;;;;;4979709;28;20866;-79
2023/10/03 03:50:38;;;;;;;20.57;18.67;;;19.70;25.70;;;;;;4979981;28;20174;-80
2023/10/03 03:53:04;;;;;;;20.07;18.17;;;19.70;25.50;;;;;;4980724;28;20410;-80
2023/10/03 03:55:30;;;;;;;20.20;18.40;;;19.60;25.60;;;;;;4961673;28;20469;-79
2023/10/03 03:57:59;;;;;;;20.60;18.63;;;19.70;25.60;;;;;;4977408;28;20199;-80
2023/10/03 04:00:29;;;;;;;18.80;17.10;;;19.70;25.70;;;;;;4981512;28;20450;-79
2023/10/03 04:02:57;;;;;;;21.40;19.10;;;19.60;24.70;;;;;;4965437;28;20432;-79
2023/10/03 04:05:25;;;;;;;19.27;17.47;;;19.70;25.70;;;;;;4964561;28;20525;-78
2023/10/03 04:07:51;;;;;;;20.97;19.07;;;19.60;25.60;;;;;;4966186;28;20469;-79
2023/10/03 04:10:16;;;;;;;20.77;18.77;;;19.60;25.60;;;;;;4966198;28;20413;-79
2023/10/03 04:12:42;;;;;;;20.70;18.60;;;19.60;25.70;;;;;;4983268;28;20420;-78
2023/10/03 04:15:13;;;;;;;20.70;18.73;;;19.50;25.60;;;;;;4966253;28;20193;-80
2023/10/03 04:17:43;;;;;;;19.33;17.33;;;19.60;25.90;;;;;;4965353;28;20433;-80
2023/10/03 04:22:53;;;;;;;20.20;18.00;;;19.50;25.80;;;;;;4981474;28;20429;-79
2023/10/03 04:25:21;;;;;;;18.87;17.17;;;19.50;25.70;;;;;;4962655;28;20426;-80
2023/10/03 04:27:54;;;;;;;20.23;18.27;;;19.50;25.80;;;;;;4962521;28;20462;-80
2023/10/03 04:30:22;;;;;;;21.60;19.30;;;19.50;25.80;;;;;;4980591;28;20407;-80
2023/10/03 04:32:48;;;;;;;19.33;17.30;;;19.50;25.60;;;;;;4965072;28;20423;-80
2023/10/03 04:35:15;;;;;;;19.80;17.93;;;19.50;25.70;;;;;;4981470;28;20988;-79
2023/10/03 04:37:41;;;;;;;19.83;17.43;;;19.50;25.50;;;;;;4981398;28;20195;-80
2023/10/03 04:40:13;;;;;;;21.10;18.87;;;19.50;25.50;;;;;;4981421;28;20436;-80
2023/10/03 04:42:45;;;;;;;20.63;18.70;;;19.50;25.60;;;;;;4981099;28;20440;-81
2023/10/03 04:45:14;;;;;;;19.63;17.77;;;19.50;25.50;;;;;;4963784;28;20480;-80
2023/10/03 04:47:45;;;;;;;19.30;17.60;;;19.50;25.40;;;;;;4963779;28;20484;-79
2023/10/03 04:50:12;;;;;;;18.63;16.80;;;19.50;25.50;;;;;;4970360;28;20421;-79
2023/10/03 04:52:41;;;;;;;18.23;16.63;;;19.50;25.50;;;;;;4979308;28;20422;-80
2023/10/03 04:55:07;;;;;;;19.13;17.30;;;19.40;25.50;;;;;;4981277;28;20429;-80
2023/10/03 04:57:33;;;;;;;18.60;16.87;;;19.40;25.40;;;;;;4964686;28;20438;-80
2023/10/03 05:00:04;;;;;;;18.40;16.20;;;19.40;25.40;;;;;;4981460;28;20480;-81
2023/10/03 05:02:30;;;;;;;17.77;16.07;;;19.40;25.50;;;;;;4966144;28;20189;-81
2023/10/03 05:04:55;;;;;;;18.27;16.80;;;19.40;25.40;;;;;;4983056;28;20406;-81
2023/10/03 05:07:23;;;;;;;18.93;17.17;;;19.40;25.40;;;;;;4982579;28;20218;-81
2023/10/03 05:09:51;;;;;;;19.57;17.53;;;19.40;25.40;;;;;;4979928;28;20178;-79
2023/10/03 05:12:16;;;;;;;17.53;15.97;;;19.30;25.20;;;;;;4978194;28;20417;-80
2023/10/03 05:14:57;;;;;;;17.57;15.87;;;19.40;25.30;;;;;;4959093;28;20414;-79
2023/10/03 05:18:16;;;;;;;18.40;16.50;;;19.30;25.10;;;;;;4963158;28;20218;-79
2023/10/03 05:20:49;;;;;;;17.77;16.07;;;19.40;24.80;;;;;;4979462;28;20414;-83
2023/10/03 05:23:15;;;;;;;17.50;16.00;;;19.40;24.90;;;;;;4970061;28;20470;-79
2023/10/03 05:32:00;;;;;;;18.70;16.97;;;19.30;24.70;;;;;;4978495;28;20473;-81
2023/10/03 05:34:26;;;;;;;18.00;16.30;;;19.30;24.80;;;;;;4981094;28;20418;-82
2023/10/03 05:36:52;;;;;;;17.17;15.67;;;19.30;24.90;;;;;;4966926;28;20456;-81
2023/10/03 05:39:18;;;;;;;17.87;15.97;;;19.30;24.80;;;;;;4984519;28;20406;-81
2023/10/03 05:41:45;;;;;;;16.57;15.17;;;19.40;24.70;;;;;;4962201;28;20458;-80
2023/10/03 05:44:11;;;;;;;17.63;16.13;;;19.30;24.70;;;;;;4978765;28;20418;-79
2023/10/03 05:46:39;;;;;;;17.30;15.80;;;19.40;25.20;;;;;;4960397;28;20434;-79
2023/10/03 05:49:05;;;;;;;17.90;16.10;;;19.30;24.60;;;;;;4981199;28;20528;-80
2023/10/03 05:51:30;;;;;;;16.53;15.03;;;19.30;24.50;;;;;;4963987;28;20419;-81
2023/10/03 05:54:05;;;;;;;16.20;14.70;;;19.30;24.70;;;;;;4979841;28;20208;-81
2023/10/03 05:56:32;;;;;;;16.30;14.90;;;19.30;24.70;;;;;;4948311;28;20214;-81
2023/10/03 05:59:00;;;;;;;17.17;15.73;;;19.40;24.50;;;;;;4950275;28;20465;-82
2023/10/03 06:01:29;;;;;;;15.73;14.43;;;19.30;24.20;;;;;;4967055;28;20460;-82
2023/10/03 06:04:08;;;;;;;17.23;15.47;;;19.40;24.60;;;;;;4965723;28;20433;-81
2023/10/03 06:06:33;;;;;;;16.00;14.60;;;19.40;24.50;;;;;;4966637;28;20528;-80
2023/10/03 06:08:59;;;;;;;16.70;15.20;;;19.40;24.50;;;;;;4981339;28;20470;-81
2023/10/03 06:11:24;;;;;;;16.30;14.80;;;19.40;24.30;;;;;;4964821;28;20214;-81
2023/10/03 06:13:50;;;;;;;15.90;14.60;;;19.40;25.20;;;;;;4966203;28;20215;-82
2023/10/03 06:16:15;;;;;;;15.63;14.23;;;19.40;25.10;;;;;;4963677;28;20190;-80
2023/10/03 06:18:56;;;;;;;16.30;14.80;;;19.40;24.40;;;;;;4980470;28;20223;-80
2023/10/03 06:21:43;;;;;;;15.47;14.17;;;19.40;24.50;;;;;;4980210;28;20194;-80
2023/10/03 06:24:12;;;;;;;15.00;13.60;;;19.50;24.40;;;;;;4966070;28;20430;-80
2023/10/03 06:26:41;;;;;;;16.00;14.60;;;19.40;24.40;;;;;;4982531;28;21056;-81
2023/10/03 06:29:07;;;;;;;14.40;13.30;;;19.40;24.20;;;;;;4965026;28;20482;-79
2023/10/03 06:31:32;;;;;;;14.87;13.57;;;19.40;24.40;;;;;;4962514;28;20429;-80
2023/10/03 06:33:58;;;;;;;14.53;13.23;;;19.40;24.50;;;;;;4964294;28;20206;-81
2023/10/03 06:36:24;;;;;;;15.40;14.10;;;19.50;24.60;;;;;;4983884;28;20215;-78
2023/10/03 06:38:50;;;;;;;15.50;14.23;;;19.50;24.30;;;;;;4966849;28;20198;-81
2023/10/03 06:41:22;;;;;;;15.47;14.07;;;19.50;24.30;;;;;;4995991;28;20193;-80
2023/10/03 06:43:49;;;;;;;14.93;13.50;;;19.50;24.20;;;;;;4976695;28;20451;-79
2023/10/03 06:46:15;;;;;;;18.10;14.43;;;19.50;24.10;;;;;;4987140;28;20444;-82
2023/10/03 06:48:51;;;;;;;14.60;13.33;;;19.50;24.20;;;;;;4996468;28;20486;-82
2023/10/03 06:51:17;;;;;;;14.83;13.60;;;19.60;24.40;;;;;;4993564;28;20520;-79
2023/10/03 06:53:46;;;;;;;16.03;13.47;;;19.60;24.30;;;;;;4981655;28;20446;-80
2023/10/03 06:56:12;;;;;;;14.37;13.07;;;19.60;24.20;;;;;;4983364;28;20184;-82
2023/10/03 06:58:38;;;;;;;13.73;12.53;;;19.60;24.30;;;;;;4967640;28;20456;-83
2023/10/03 07:01:21;;;;;;;13.70;12.40;;;19.60;24.10;;;;;;4983321;28;20422;-78
2023/10/03 07:04:06;;;;;;;14.37;13.00;;;19.70;24.00;;;;;;4962765;28;20299;-79
2023/10/03 07:07:34;;;;;;;13.73;12.57;;;19.70;24.40;;;;;;4942300;28;20969;-79
2023/10/03 07:10:34;;;;;;;12.50;11.50;;;19.70;23.90;;;;;;4974935;28;20980;-79
2023/10/03 07:13:02;;;;;;;12.97;11.97;;;19.90;23.70;;;;;;4960799;28;20433;-78
2023/10/03 07:15:28;;;;;;;14.13;12.90;;;19.90;23.60;;;;;;4959026;28;20441;-78
2023/10/03 07:18:07;;;;;;;14.03;12.70;;;20.00;23.40;;;;;;4963322;28;20511;-79
2023/10/03 07:21:34;;;;;;;12.17;11.03;;;20.00;22.40;;;;;;4959225;28;20869;-79
2023/10/03 07:24:00;;;;;;;10.90;10.00;;;20.10;22.70;;;;;;4841105;29;20941;-79
2023/10/03 07:26:27;;;;;;;13.20;12.20;;;20.20;19.00;;;;;;4873505;28;20485;-79
2023/10/03 07:28:57;;;;;;;11.33;10.30;;;20.50;20.30;;;;;;4982972;28;20620;-80
2023/10/03 07:31:23;;;;;;;10.57;9.57;;;20.80;18.00;;;;;;4972003;28;20425;-78
2023/10/03 07:33:52;;;;;;;11.00;10.10;;;21.20;15.60;;;;;;4977266;28;20480;-81
2023/10/03 07:36:17;;;;;;;10.47;9.53;;;21.60;15.30;;;;;;4977124;28;20245;-79
2023/10/03 07:38:45;;;;;;;9.63;8.93;;;21.80;14.50;;;;;;4978425;28;20430;-80
2023/10/03 07:41:15;;;;;;;10.77;9.67;;;22.00;14.50;;;;;;4976201;28;20175;-81
2023/10/03 07:43:41;;;;;;;10.57;9.87;;;22.10;14.40;;;;;;4979088;28;20493;-82
2023/10/03 07:46:07;;;;;;;10.60;9.80;;;22.30;13.90;;;;;;4979681;28;20508;-80
2023/10/03 07:48:35;;;;;;;10.97;10.00;;;22.40;14.20;;;;;;4978644;28;21093;-82
2023/10/03 07:51:05;;;;;;;10.23;9.33;;;22.50;14.80;;;;;;4983135;28;20169;-79
2023/10/03 07:53:30;;;;;;;11.37;10.37;;;22.60;14.30;;;;;;4982136;28;20445;-82
2023/10/03 07:55:59;;;;;;;10.23;9.23;;;22.50;14.60;;;;;;4980573;28;20414;-79
2023/10/03 07:58:27;;;;;;;10.30;9.50;;;22.60;14.80;;;;;;4982331;28;20197;-81
2023/10/03 08:00:53;;;;;;;11.50;10.60;;;22.60;14.50;;;;;;4981608;28;20424;-82
2023/10/03 08:03:19;;;;;;;9.83;9.03;;;22.80;13.90;;;;;;4965423;28;20422;-81
2023/10/03 08:05:45;;;;;;;9.13;8.43;;;22.90;13.30;;;;;;4964323;28;20771;-82
2023/10/03 08:08:11;;;;;;;10.23;9.43;;;23.00;13.20;;;;;;5051051;22;20500;-82
2023/10/03 08:10:37;;;;;;;10.00;9.10;;;23.10;12.70;;;;;;5000670;28;20186;-81
2023/10/03 08:13:03;;;;;;;10.07;9.23;;;23.30;12.50;;;;;;5002652;28;20455;-81
2023/10/03 08:15:31;;;;;;;8.33;7.77;;;23.20;12.30;;;;;;5003713;28;20209;-82
2023/10/03 08:17:58;;;;;;;9.70;8.90;;;23.30;12.40;;;;;;4999346;28;21022;-80
2023/10/03 08:20:26;;;;;;;9.73;8.90;;;23.30;12.50;;;;;;5014942;28;20436;-79
2023/10/03 08:22:52;;;;;;;9.53;8.73;;;23.50;12.10;;;;;;5001426;28;20442;-80
2023/10/03 08:25:25;;;;;;;9.27;8.57;;;23.60;12.00;;;;;;5010418;28;20452;-80
2023/10/03 08:27:52;;;;;;;8.47;7.87;;;23.70;12.00;;;;;;5002896;28;20213;-81
2023/10/03 08:30:28;;;;;;;8.90;8.30;;;23.70;12.20;;;;;;5002177;28;20417;-80
2023/10/03 08:33:05;;;;;;;9.80;9.00;;;23.80;11.50;;;;;;4993167;28;20767;-81
2023/10/03 08:35:43;;;;;;;8.93;8.03;;;23.90;11.70;;;;;;5025740;28;20427;-82
2023/10/03 08:38:20;;;;;;;9.33;8.53;;;24.00;11.70;;;;;;5026809;28;20446;-82
2023/10/03 08:47:38;;;;;;;9.90;9.07;;;24.10;12.20;;;;;;5022081;28;20486;-83
2023/10/03 08:50:36;;;;;;;9.67;8.87;;;24.10;12.20;;;;;;5020300;28;20857;-80
2023/10/03 08:54:08;;;;;;;9.07;8.30;;;24.20;11.70;;;;;;5005691;28;20427;-79
2023/10/03 08:56:35;;;;;;;9.60;8.83;;;24.20;11.90;;;;;;4989571;28;20449;-79
2023/10/03 08:59:15;;;;;;;9.17;8.47;;;24.30;12.10;;;;;;4986555;28;20463;-83
2023/10/03 09:02:11;;;;;;;9.30;8.60;;;24.30;11.60;;;;;;5002458;28;20420;-80
2023/10/03 09:05:15;;;;;;;10.07;9.13;;;24.40;11.70;;;;;;5001770;28;20429;-80
2023/10/03 09:12:08;;;;;;;9.43;8.50;;;24.80;11.50;;;;;;4940294;29;20435;-81
2023/10/03 09:20:31;;;;;;;7.73;7.03;;;24.90;11.50;;;;;;5639496;23;20503;-79
2023/10/03 09:23:06;;;;;;;6.90;6.40;;;25.00;11.30;;;;;;4988193;28;20477;-77
2023/10/03 09:25:33;;;;;;;7.77;7.07;;;25.00;11.20;;;;;;4972735;28;20534;-79
2023/10/03 09:28:11;;;;;;;8.30;7.50;;;25.00;11.60;;;;;;5016948;23;20488;-79
2023/10/03 09:30:37;;;;;;;8.57;7.77;;;24.80;11.80;;;;;;4983952;28;20433;-78
2023/10/03 09:33:17;;;;;;;7.30;6.70;;;24.80;11.90;;;;;;4981317;28;20530;-79
2023/10/03 09:35:56;;;;;;;7.50;6.90;;;24.80;12.10;;;;;;4981589;28;20504;-81
2023/10/03 09:38:44;;;;;;;8.53;7.73;;;24.80;11.90;;;;;;4982183;28;20492;-79
2023/10/03 09:41:17;;;;;;;7.73;7.07;;;24.80;12.20;;;;;;4981917;28;20440;-79
2023/10/03 09:43:53;;;;;;;7.37;6.87;;;24.80;12.90;;;;;;4997378;28;20917;-79
2023/10/03 09:46:24;;;;;;;7.47;6.77;;;24.70;12.50;;;;;;5000807;28;20449;-81
2023/10/03 09:48:53;;;;;;;8.33;7.73;;;24.80;12.00;;;;;;5002741;28;20465;-79
2023/10/03 09:54:15;;;;;;;10.60;8.70;;;24.90;12.90;;;;;;5007176;28;20420;-80
2023/10/03 09:56:49;;;;;;;9.53;7.90;;;24.90;12.10;;;;;;5007688;28;20441;-81
2023/10/03 09:59:38;;;;;;;8.27;7.57;;;25.00;12.40;;;;;;4986618;28;20437;-80
2023/10/03 10:02:03;;;;;;;9.10;8.30;;;25.00;12.50;;;;;;5010504;28;20551;-79
2023/10/03 10:04:30;;;;;;;8.40;7.80;;;25.30;12.20;;;;;;4998515;28;20433;-80
2023/10/03 10:07:58;;;;;;;7.93;7.33;;;25.60;11.70;;;;;;5007720;28;20193;-79
2023/10/03 10:10:26;;;;;;;8.70;8.10;;;25.80;11.40;;;;;;5000864;28;20460;-77
2023/10/03 10:13:12;;;;;;;8.00;7.33;;;25.90;11.20;;;;;;5019151;28;20412;-79
2023/10/03 10:16:00;;;;;;;10.30;7.80;;;25.90;11.10;;;;;;5001791;28;20429;-77
2023/10/03 10:19:08;;;;;;;8.73;7.70;;;26.00;11.10;;;;;;5015294;28;20441;-78
2023/10/03 10:26:11;;;;;;;8.20;7.57;;;26.00;10.70;;;;;;4909127;29;20436;-81
2023/10/03 10:28:26;;;;;;;7.90;7.17;;;26.10;10.70;;;;;;4923230;28;20477;-80
2023/10/03 10:31:11;;;;;;;8.30;7.50;;;26.10;10.50;;;;;;5004020;28;20421;-83
2023/10/03 10:37:27;;;;;;;8.57;7.77;;;26.10;10.40;;;;;;4998902;28;20428;-83
2023/10/03 10:43:16;;;;;;;7.93;7.43;;;26.10;10.90;;;;;;5004340;28;20421;-82
2023/10/03 10:46:31;;;;;;;7.80;7.40;;;26.00;10.70;;;;;;5003991;28;20476;-81
2023/10/03 10:48:57;;;;;;;8.27;7.57;;;26.00;10.80;;;;;;4987469;28;20469;-83
2023/10/03 10:51:23;;;;;;;9.10;8.23;;;26.10;10.90;;;;;;4986483;28;20424;-76
2023/10/03 10:53:51;;;;;;;8.50;7.90;;;26.10;11.40;;;;;;4985729;28;20178;-79
2023/10/03 10:56:17;;;;;;;8.80;8.27;;;26.20;10.90;;;;;;4986779;28;20429;-79
2023/10/03 10:58:50;;;;;;;11.10;8.37;;;26.20;10.90;;;;;;5005157;28;20432;-81
2023/10/03 11:01:20;;;;;;;8.57;7.87;;;26.20;10.90;;;;;;5002922;28;20190;-82
2023/10/03 11:03:47;;;;;;;8.40;7.70;;;26.30;11.00;;;;;;4987477;28;20516;-80
2023/10/03 11:06:23;;;;;;;9.60;8.90;;;26.30;11.10;;;;;;4988155;28;20426;-79
2023/10/03 11:08:50;;;;;;;9.47;8.73;;;26.40;10.70;;;;;;4972052;28;20472;-79
2023/10/03 11:11:38;;;;;;;8.70;8.10;;;26.50;10.70;;;;;;4988592;28;20865;-83
2023/10/03 11:14:04;;;;;;;8.70;8.00;;;26.60;10.80;;;;;;4987611;28;20960;-81
2023/10/03 11:16:48;;;;;;;9.40;8.60;;;26.60;10.80;;;;;;4985953;28;20445;-84
2023/10/03 11:19:14;;;;;;;8.47;7.83;;;26.70;10.60;;;;;;4984650;28;20189;-80
2023/10/03 11:21:40;;;;;;;9.10;8.40;;;26.80;10.70;;;;;;4987910;28;20970;-79
2023/10/03 11:24:33;;;;;;;8.63;8.07;;;26.70;10.70;;;;;;5002765;28;20182;-79
2023/10/03 11:27:01;;;;;;;8.53;7.90;;;26.60;10.90;;;;;;4990828;28;20445;-82
2023/10/03 11:29:48;;;;;;;8.97;8.17;;;26.50;11.00;;;;;;5001539;28;20425;-84
2023/10/03 11:32:32;;;;;;;9.00;8.37;;;26.50;11.00;;;;;;4998083;28;20431;-82
2023/10/03 11:35:32;;;;;;;9.07;8.43;;;26.40;11.40;;;;;;4971932;28;20426;-84
2023/10/03 11:38:05;;;;;;;9.50;8.70;;;26.30;11.50;;;;;;4982551;28;20444;-78
2023/10/03 11:40:31;;;;;;;8.90;8.20;;;26.20;11.40;;;;;;4982530;28;20453;-79
2023/10/03 11:43:08;;;;;;;8.53;7.93;;;26.20;11.50;;;;;;4984391;28;20790;-80
2023/10/03 11:45:34;;;;;;;9.33;8.53;;;26.10;11.40;;;;;;4985111;28;20208;-82
2023/10/03 11:48:17;;;;;;;9.00;8.20;;;26.10;11.60;;;;;;4984191;28;20475;-78
2023/10/03 11:50:45;;;;;;;9.00;8.20;;;26.10;11.80;;;;;;5001189;28;20464;-80
2023/10/03 11:53:12;;;;;;;8.80;8.20;;;26.00;12.00;;;;;;5002369;28;20440;-79
2023/10/03 11:55:40;;;;;;;8.17;7.60;;;26.00;12.00;;;;;;4983723;28;20421;-81
2023/10/03 11:58:07;;;;;;;9.40;8.70;;;25.90;12.20;;;;;;5002183;28;20449;-80
2023/10/03 12:00:33;;;;;;;9.50;8.53;;;25.90;12.30;;;;;;4984049;28;20432;-78
2023/10/03 12:02:59;;;;;;;9.03;8.43;;;25.90;12.30;;;;;;5003486;28;20417;-79
2023/10/03 12:05:27;;;;;;;9.23;8.53;;;25.80;12.50;;;;;;5003270;28;20408;-79
2023/10/03 12:07:56;;;;;;;8.80;8.03;;;25.80;12.50;;;;;;5003335;28;20471;-79
2023/10/03 12:10:24;;;;;;;9.33;8.63;;;25.80;12.20;;;;;;5001736;28;20469;-78
2023/10/03 12:12:50;;;;;;;9.27;8.57;;;25.80;12.20;;;;;;5000018;28;20825;-80
2023/10/03 12:15:16;;;;;;;10.50;8.23;;;25.90;12.00;;;;;;4983265;28;20417;-78
2023/10/03 12:17:44;;;;;;;10.00;9.10;;;25.90;11.90;;;;;;4984390;28;20555;-80
2023/10/03 12:20:11;;;;;;;9.40;8.67;;;26.00;11.90;;;;;;5003029;28;20541;-79
2023/10/03 12:22:43;;;;;;;9.30;8.50;;;26.00;11.60;;;;;;4985117;28;20414;-80
2023/10/03 12:25:14;;;;;;;9.00;8.37;;;26.00;11.60;;;;;;4986548;28;20435;-79
2023/10/03 12:27:41;;;;;;;8.50;7.90;;;25.90;11.70;;;;;;4985685;28;20465;-80
2023/10/03 12:30:10;;;;;;;8.40;7.70;;;25.90;11.80;;;;;;4986689;28;20898;-81
2023/10/03 12:32:41;;;;;;;12.03;8.23;;;25.90;11.90;;;;;;4984199;28;20441;-77
2023/10/03 12:35:07;;;;;;;10.57;9.87;;;25.80;11.90;;;;;;4984393;28;20453;-78
2023/10/03 12:37:34;;;;;;;9.33;8.60;;;25.70;12.10;;;;;;5005775;28;20436;-79
2023/10/03 12:40:13;;;;;;;7.90;7.40;;;25.70;12.30;;;;;;4988612;28;20428;-79
2023/10/03 12:42:49;;;;;;;10.30;9.40;;;25.70;12.40;;;;;;4989004;28;20429;-80
2023/10/03 12:45:17;;;;;;;9.87;9.10;;;25.70;12.40;;;;;;4988721;28;20420;-81
2023/10/03 12:47:47;;;;;;;7.87;7.37;;;25.70;12.40;;;;;;5003255;28;20461;-80
2023/10/03 12:50:24;;;;;;;8.70;8.13;;;25.70;12.40;;;;;;4985864;28;20850;-80
2023/10/03 12:52:53;;;;;;;9.97;9.00;;;25.70;12.40;;;;;;4985294;28;20528;-79
2023/10/03 12:55:19;;;;;;;10.40;9.50;;;25.60;12.40;;;;;;4986196;28;20410;-81
2023/10/03 12:57:48;;;;;;;9.83;9.07;;;25.50;12.50;;;;;;5003900;28;20433;-81
2023/10/03 13:00:20;;;;;;;10.63;8.83;;;25.50;12.70;;;;;;5004527;28;20785;-79
2023/10/03 13:02:46;;;;;;;10.07;8.70;;;25.40;12.80;;;;;;4987654;28;20432;-80
2023/10/03 13:05:12;;;;;;;10.20;9.10;;;25.40;13.70;;;;;;4986929;28;20425;-78
2023/10/03 13:07:38;;;;;;;10.00;9.10;;;25.30;13.20;;;;;;4988307;28;20496;-79
2023/10/03 13:10:06;;;;;;;10.27;9.40;;;25.20;13.30;;;;;;4986847;28;20795;-78
2023/10/03 13:12:33;;;;;;;10.93;9.93;;;25.10;13.70;;;;;;4987218;28;20417;-78
2023/10/03 13:14:59;;;;;;;10.23;9.43;;;25.00;13.90;;;;;;4986473;28;20793;-80
2023/10/03 13:17:26;;;;;;;9.57;8.67;;;25.00;14.10;;;;;;4988528;28;20441;-80
2023/10/03 13:19:52;;;;;;;9.87;8.97;;;24.90;14.20;;;;;;5006472;28;20417;-81
2023/10/03 13:22:17;;;;;;;10.13;9.27;;;24.90;14.40;;;;;;4988784;28;20425;-81
2023/10/03 13:24:43;;;;;;;9.20;8.50;;;24.80;14.70;;;;;;4987363;28;20221;-81
2023/10/03 13:27:08;;;;;;;11.23;10.23;;;24.80;15.10;;;;;;5005471;28;20210;-81
2023/10/03 13:29:34;;;;;;;10.90;10.00;;;24.70;15.30;;;;;;5005184;28;20181;-81
2023/10/03 13:32:02;;;;;;;11.60;10.60;;;24.60;15.50;;;;;;5005226;28;20282;-81
2023/10/03 13:34:28;;;;;;;11.07;10.27;;;24.50;16.00;;;;;;4989381;28;20235;-79